createdAt,value
2018-10-11T00:00:38.082Z,20.00
2018-10-11T00:03:08.040Z,18.87
2018-10-11T00:05:37.857Z,18.97
2018-10-11T00:08:07.842Z,19.00
2018-10-11T00:10:37.566Z,17.60
2018-10-11T00:13:07.152Z,18.37
2018-10-11T00:15:36.779Z,18.17
2018-10-11T00:18:06.418Z,18.40
2018-10-11T00:20:36.050Z,18.13
2018-10-11T00:23:05.633Z,18.00
2018-10-11T00:25:35.330Z,17.63
2018-10-11T00:28:04.875Z,18.33
2018-10-11T00:30:34.443Z,17.30
2018-10-11T00:33:04.065Z,18.00
2018-10-11T00:35:33.645Z,18.20
2018-10-11T00:38:03.286Z,18.40
2018-10-11T00:40:32.848Z,18.00
2018-10-11T00:43:02.444Z,17.83
2018-10-11T00:45:32.037Z,17.43
2018-10-11T00:48:01.681Z,17.40
2018-10-11T00:50:31.293Z,17.57
2018-10-11T00:53:00.836Z,16.80
2018-10-11T00:55:30.502Z,18.03
2018-10-11T00:58:00.121Z,16.93
2018-10-11T01:00:29.662Z,18.40
2018-10-11T01:02:59.286Z,18.27
2018-10-11T01:05:28.802Z,17.40
2018-10-11T01:07:58.391Z,17.00
2018-10-11T01:10:28.028Z,17.07
2018-10-11T01:12:57.666Z,16.63
2018-10-11T01:15:27.204Z,16.90
2018-10-11T01:17:56.819Z,16.77
2018-10-11T01:20:26.491Z,16.63
2018-10-11T01:22:56.269Z,16.70
2018-10-11T01:25:25.846Z,16.20
2018-10-11T01:27:55.623Z,16.93
2018-10-11T01:30:25.721Z,17.17
2018-10-11T01:32:55.307Z,16.87
2018-10-11T01:35:25.187Z,16.80
2018-10-11T01:37:55.177Z,16.27
2018-10-11T01:40:25.148Z,16.70
2018-10-11T01:43:05.863Z,15.43
2018-10-11T01:45:36.020Z,15.30
2018-10-11T01:48:05.595Z,16.87
2018-10-11T01:50:35.228Z,16.47
2018-10-11T01:53:06.154Z,16.80
2018-10-11T01:55:35.715Z,16.97
2018-10-11T01:58:05.343Z,16.20
2018-10-11T02:00:34.889Z,16.23
2018-10-11T02:03:04.488Z,15.97
2018-10-11T02:05:34.083Z,15.83
2018-10-11T02:08:03.691Z,15.13
2018-10-11T02:10:33.312Z,16.37
2018-10-11T02:13:02.921Z,16.10
2018-10-11T02:15:32.542Z,16.77
2018-10-11T02:18:02.137Z,16.53
2018-10-11T02:20:31.736Z,17.90
2018-10-11T02:23:01.343Z,18.00
2018-10-11T02:25:30.966Z,17.70
2018-10-11T02:28:00.566Z,17.50
2018-10-11T02:30:30.195Z,22.10
2018-10-11T02:32:59.864Z,23.30
2018-10-11T02:35:29.460Z,23.67
2018-10-11T02:37:58.990Z,23.77
2018-10-11T02:40:28.538Z,24.63
2018-10-11T02:42:58.185Z,24.30
2018-10-11T02:45:27.716Z,22.93
2018-10-11T02:47:57.350Z,23.27
2018-10-11T02:50:26.949Z,23.63
2018-10-11T02:52:56.508Z,23.27
2018-10-11T02:55:27.757Z,24.57
2018-10-11T02:58:08.256Z,23.53
2018-10-11T03:00:38.097Z,22.30
2018-10-11T03:03:11.649Z,22.00
2018-10-11T03:05:43.302Z,22.77
2018-10-11T03:08:19.696Z,23.33
2018-10-11T03:10:50.036Z,22.60
2018-10-11T03:13:19.705Z,21.00
2018-10-11T03:15:49.414Z,20.60
2018-10-11T03:18:19.065Z,20.33
2018-10-11T03:20:48.646Z,20.77
2018-10-11T03:23:18.298Z,19.30
2018-10-11T03:25:47.873Z,19.23
2018-10-11T03:28:18.433Z,19.63
2018-10-11T03:30:48.014Z,19.00
2018-10-11T03:33:17.599Z,19.30
2018-10-11T03:35:47.228Z,18.67
2018-10-11T03:38:16.831Z,19.23
2018-10-11T03:40:46.411Z,19.47
2018-10-11T03:43:15.994Z,19.70
2018-10-11T03:45:45.677Z,19.63
2018-10-11T03:48:15.318Z,20.27
2018-10-11T03:50:44.922Z,19.50
2018-10-11T03:53:14.556Z,19.67
2018-10-11T03:55:44.175Z,19.77
2018-10-11T03:58:13.744Z,20.00
2018-10-11T04:00:43.596Z,19.83
2018-10-11T04:03:13.190Z,20.73
2018-10-11T04:05:42.773Z,21.17
2018-10-11T04:08:12.452Z,20.57
2018-10-11T04:10:42.048Z,21.67
2018-10-11T04:13:11.846Z,21.43
2018-10-11T04:15:41.509Z,21.07
2018-10-11T04:18:11.279Z,20.97
2018-10-11T04:20:40.882Z,20.87
2018-10-11T04:23:14.528Z,21.83
2018-10-11T04:25:44.143Z,20.93
2018-10-11T04:28:13.697Z,21.07
2018-10-11T04:30:43.297Z,19.83
2018-10-11T04:33:12.928Z,20.20
2018-10-11T04:35:42.557Z,20.60
2018-10-11T04:38:12.242Z,21.43
2018-10-11T04:40:42.559Z,20.53
2018-10-11T04:43:12.970Z,19.93
2018-10-11T04:45:43.716Z,19.93
2018-10-11T04:48:14.454Z,20.97
2018-10-11T04:50:45.980Z,20.30
2018-10-11T04:53:16.650Z,20.30
2018-10-11T04:59:04.663Z,22.70
2018-10-11T05:01:34.960Z,21.23
2018-10-11T05:04:05.019Z,20.23
2018-10-11T05:06:35.004Z,20.97
2018-10-11T05:09:04.998Z,20.87
2018-10-11T05:11:35.530Z,20.43
2018-10-11T05:14:05.301Z,20.17
2018-10-11T05:16:34.993Z,20.10
2018-10-11T05:19:05.839Z,21.43
2018-10-11T05:21:36.209Z,20.80
2018-10-11T05:24:06.381Z,20.83
2018-10-11T05:26:36.069Z,22.30
2018-10-11T05:29:06.346Z,21.80
2018-10-11T05:31:36.615Z,20.30
2018-10-11T05:34:07.070Z,21.43
2018-10-11T05:36:36.938Z,21.00
2018-10-11T05:39:08.140Z,22.47
2018-10-11T05:41:37.976Z,21.40
2018-10-11T05:44:08.528Z,21.97
2018-10-11T05:46:40.049Z,21.53
2018-10-11T05:49:10.324Z,22.37
2018-10-11T05:51:40.933Z,22.33
2018-10-11T05:54:11.422Z,22.37
2018-10-11T05:56:43.718Z,22.20
2018-10-11T05:59:14.262Z,23.67
2018-10-11T06:01:44.125Z,23.57
2018-10-11T06:04:14.417Z,22.60
2018-10-11T06:06:47.205Z,23.13
2018-10-11T06:09:17.327Z,22.40
2018-10-11T06:11:47.524Z,21.10
2018-10-11T06:14:18.125Z,21.10
2018-10-11T06:16:47.877Z,21.17
2018-10-11T06:19:17.896Z,21.10
2018-10-11T06:21:47.696Z,22.40
2018-10-11T06:24:17.297Z,21.43
2018-10-11T06:26:46.909Z,21.60
2018-10-11T06:29:17.105Z,20.77
2018-10-11T06:31:46.906Z,20.80
2018-10-11T06:34:17.329Z,20.67
2018-10-11T06:36:47.219Z,20.33
2018-10-11T06:39:17.525Z,18.73
2018-10-11T06:55:20.708Z,19.93
2018-10-11T06:57:50.339Z,18.83
2018-10-11T07:00:29.991Z,18.60
2018-10-11T07:02:59.693Z,17.80
2018-10-11T07:05:36.442Z,18.57
2018-10-11T07:08:06.056Z,17.37
2018-10-11T07:11:01.838Z,16.63
2018-10-11T07:17:01.542Z,16.57
2018-10-11T07:19:31.680Z,16.60
2018-10-11T07:22:01.374Z,15.63
2018-10-11T07:24:31.021Z,15.43
2018-10-11T07:27:01.949Z,15.32
2018-10-11T07:29:31.804Z,14.30
2018-10-11T07:32:02.795Z,15.30
2018-10-11T07:34:32.481Z,15.87
2018-10-11T07:37:03.002Z,14.30
2018-10-11T07:39:32.713Z,14.57
2018-10-11T07:42:02.436Z,14.70
2018-10-11T07:44:42.465Z,14.77
2018-10-11T07:47:13.083Z,14.50
2018-10-11T07:49:47.285Z,14.33
2018-10-11T07:52:16.835Z,15.32
2018-10-11T07:54:47.890Z,14.63
2018-10-11T07:57:20.145Z,12.83
2018-10-11T08:00:05.940Z,14.85
2018-10-11T08:02:41.746Z,13.20
2018-10-11T08:05:11.504Z,12.30
2018-10-11T08:07:41.230Z,12.77
2018-10-11T08:10:18.703Z,13.55
2018-10-11T08:12:55.252Z,14.40
2018-10-11T08:15:24.978Z,14.10
2018-10-11T08:17:55.334Z,14.03
2018-10-11T08:20:24.843Z,13.50
2018-10-11T08:22:57.485Z,12.53
2018-10-11T08:25:27.245Z,14.03
2018-10-11T08:28:03.597Z,13.53
2018-10-11T08:30:33.919Z,12.77
2018-10-11T08:33:12.846Z,12.90
2018-10-11T08:35:46.630Z,13.98
2018-10-11T08:38:17.193Z,13.77
2018-10-11T08:40:46.776Z,13.00
2018-10-11T08:43:16.479Z,13.23
2018-10-11T08:45:46.265Z,14.07
2018-10-11T08:48:15.986Z,13.48
2018-10-11T08:50:46.089Z,12.27
2018-10-11T08:53:15.821Z,14.23
2018-10-11T08:55:45.721Z,12.63
2018-10-11T08:58:15.399Z,13.43
2018-10-11T09:00:45.609Z,14.27
2018-10-11T09:03:15.359Z,14.17
2018-10-11T09:05:44.973Z,14.07
2018-10-11T09:08:15.000Z,12.03
2018-10-11T09:10:45.299Z,13.20
2018-10-11T09:13:16.000Z,13.73
2018-10-11T09:15:49.142Z,13.83
2018-10-11T09:18:22.295Z,13.73
2018-10-11T09:20:53.432Z,12.07
2018-10-11T09:23:23.576Z,11.47
2018-10-11T09:25:53.725Z,12.50
2018-10-11T09:28:23.557Z,11.77
2018-10-11T09:30:53.813Z,11.93
2018-10-11T09:34:11.016Z,12.93
2018-10-11T09:36:47.650Z,13.38
2018-10-11T09:39:17.906Z,13.77
2018-10-11T09:42:08.368Z,14.03
2018-10-11T09:44:44.571Z,12.03
2018-10-11T09:47:24.651Z,12.78
2018-10-11T09:49:54.253Z,14.83
2018-10-11T09:52:23.804Z,13.40
2018-10-11T09:54:54.158Z,14.03
2018-10-11T09:57:38.851Z,13.17
2018-10-11T10:00:15.433Z,12.30
2018-10-11T10:03:25.915Z,13.90
2018-10-11T10:06:04.251Z,14.50
2018-10-11T10:11:11.446Z,14.15
2018-10-11T10:13:41.156Z,12.87
2018-10-11T10:16:10.887Z,13.88
2018-10-11T10:18:40.581Z,12.73
2018-10-11T10:21:10.350Z,13.53
2018-10-11T10:39:46.197Z,14.07
2018-10-11T10:42:18.812Z,14.63
2018-10-11T10:44:48.443Z,13.98
2018-10-11T10:47:19.401Z,13.60
2018-10-11T10:49:49.155Z,14.80
2018-10-11T10:52:20.020Z,14.77
2018-10-11T10:54:49.677Z,15.03
2018-10-11T10:57:19.272Z,13.00
2018-10-11T10:59:49.501Z,14.13
2018-10-11T11:02:19.721Z,14.60
2018-10-11T11:04:56.299Z,14.50
2018-10-11T11:07:25.989Z,13.60
2018-10-11T11:10:07.074Z,14.03
2018-10-11T11:12:37.549Z,14.47
2018-10-11T11:15:08.028Z,13.97
2018-10-11T11:20:16.971Z,13.73
2018-10-11T11:29:22.772Z,12.95
2018-10-11T11:35:27.980Z,12.67
2018-10-11T11:37:57.677Z,11.97
2018-10-11T11:40:27.301Z,12.13
2018-10-11T11:42:56.900Z,13.10
2018-10-11T11:45:26.587Z,12.33
2018-10-11T11:47:56.235Z,11.90
2018-10-11T11:50:25.910Z,12.28
2018-10-11T11:52:55.570Z,12.90
2018-10-11T11:55:26.053Z,12.00
2018-10-11T11:57:56.371Z,11.90
2018-10-11T12:00:28.443Z,10.37
2018-10-11T12:03:00.291Z,12.30
2018-10-11T12:05:32.115Z,11.40
2018-10-11T12:08:04.532Z,12.17
2018-10-11T12:10:37.020Z,12.13
2018-10-11T12:13:18.152Z,11.97
2018-10-11T12:16:01.363Z,12.50
2018-10-11T12:18:40.997Z,12.97
2018-10-11T12:43:03.741Z,12.07
2018-10-11T13:02:22.757Z,12.37
2018-10-11T13:08:20.608Z,11.43
2018-10-11T13:10:50.269Z,11.63
2018-10-11T13:13:19.862Z,12.25
2018-10-11T13:15:49.581Z,12.10
2018-10-11T13:18:19.569Z,11.73
2018-10-11T13:20:49.309Z,12.27
2018-10-11T13:23:18.911Z,11.93
2018-10-11T13:25:48.530Z,10.70
2018-10-11T13:28:18.056Z,11.50
2018-10-11T13:30:47.565Z,11.55
2018-10-11T13:33:17.193Z,11.63
2018-10-11T13:35:46.773Z,12.40
2018-10-11T13:38:16.392Z,10.53
2018-10-11T13:40:46.090Z,12.47
2018-10-11T13:43:15.596Z,11.73
2018-10-11T13:45:45.305Z,11.67
2018-10-11T13:48:14.938Z,12.43
2018-10-11T13:50:44.505Z,11.63
2018-10-11T13:53:17.019Z,12.00
2018-10-11T13:55:46.943Z,12.50
2018-10-11T13:58:13.354Z,12.67
2018-10-11T14:00:43.102Z,12.10
2018-10-11T14:03:12.724Z,12.70
2018-10-11T14:05:42.364Z,13.50
2018-10-11T14:08:11.946Z,12.57
2018-10-11T14:10:41.789Z,13.33
2018-10-11T14:13:15.090Z,13.50
2018-10-11T14:15:40.831Z,13.17
2018-10-11T14:18:12.402Z,12.83
2018-10-11T14:20:40.190Z,12.97
2018-10-11T14:23:09.818Z,12.63
2018-10-11T14:25:39.450Z,12.70
2018-10-11T14:28:09.136Z,13.03
2018-10-11T14:30:38.740Z,12.80
2018-10-11T14:33:08.371Z,13.07
2018-10-11T14:35:38.365Z,13.23
2018-10-11T14:38:08.164Z,13.57
2018-10-11T14:40:37.855Z,13.70
2018-10-11T14:43:07.684Z,14.03
2018-10-11T14:45:37.231Z,13.80
2018-10-11T14:48:07.102Z,13.43
2018-10-11T14:50:36.717Z,13.70
2018-10-11T14:53:06.385Z,14.43
2018-10-11T14:55:36.174Z,13.83
2018-10-11T14:58:05.874Z,13.60
2018-10-11T15:00:35.517Z,13.93
2018-10-11T15:03:05.344Z,14.33
2018-10-11T15:05:35.843Z,14.50
2018-10-11T15:08:05.515Z,13.77
2018-10-11T15:10:35.159Z,14.10
2018-10-11T15:13:04.734Z,14.20
2018-10-11T15:15:34.330Z,14.33
2018-10-11T15:18:03.913Z,14.47
2018-10-11T15:20:33.584Z,15.43
2018-10-11T15:23:03.365Z,14.30
2018-10-11T15:25:33.009Z,14.87
2018-10-11T15:28:02.783Z,16.00
2018-10-11T15:30:32.334Z,16.23
2018-10-11T15:33:01.969Z,16.63
2018-10-11T15:35:31.545Z,16.00
2018-10-11T15:38:01.177Z,16.80
2018-10-11T15:40:30.766Z,18.00
2018-10-11T15:43:00.388Z,17.83
2018-10-11T15:45:30.101Z,18.23
2018-10-11T15:47:59.687Z,18.40
2018-10-11T15:50:29.325Z,18.93
2018-10-11T15:52:59.061Z,18.50
2018-10-11T15:55:28.756Z,20.33
2018-10-11T15:57:58.423Z,20.13
2018-10-11T16:00:28.169Z,20.47
2018-10-11T16:02:57.862Z,21.40
2018-10-11T16:05:27.544Z,20.50
2018-10-11T16:07:57.143Z,21.07
2018-10-11T16:10:26.734Z,21.53
2018-10-11T16:12:56.468Z,22.03
2018-10-11T16:15:26.142Z,21.67
2018-10-11T16:17:55.775Z,21.93
2018-10-11T16:20:25.389Z,21.33
2018-10-11T16:22:54.979Z,21.73
2018-10-11T16:25:24.755Z,22.30
2018-10-11T16:27:54.494Z,20.87
2018-10-11T16:30:24.828Z,20.33
2018-10-11T16:32:54.446Z,20.30
2018-10-11T16:35:24.033Z,18.90
2018-10-11T16:37:53.788Z,20.53
2018-10-11T16:40:23.601Z,19.73
2018-10-11T16:42:53.203Z,19.23
2018-10-11T16:45:23.104Z,19.40
2018-10-11T16:47:52.758Z,18.53
2018-10-11T16:50:22.684Z,19.17
2018-10-11T16:52:52.757Z,19.10
2018-10-11T16:55:22.601Z,18.70
2018-10-11T16:57:52.956Z,20.20
2018-10-11T17:00:23.213Z,19.03
2018-10-11T17:02:53.453Z,19.90
2018-10-11T17:05:23.916Z,19.50
2018-10-11T17:07:54.534Z,19.20
2018-10-11T17:10:25.037Z,18.57
2018-10-11T17:12:55.500Z,19.33
2018-10-11T17:15:26.029Z,19.60
2018-10-11T17:17:56.397Z,18.67
2018-10-11T17:20:26.735Z,40.30
2018-10-11T17:22:57.212Z,52.03
2018-10-11T17:25:27.648Z,35.47
2018-10-11T17:27:58.039Z,33.33
2018-10-11T17:30:28.517Z,29.53
2018-10-11T17:32:58.933Z,29.60
2018-10-11T17:35:29.396Z,35.57
2018-10-11T17:37:59.825Z,42.77
2018-10-11T17:40:30.148Z,44.63
2018-10-11T17:43:00.547Z,33.20
2018-10-11T17:45:30.936Z,24.87
2018-10-11T17:48:01.521Z,23.60
2018-10-11T17:50:32.061Z,22.20
2018-10-11T17:53:02.428Z,22.13
2018-10-11T17:55:32.809Z,24.20
2018-10-11T17:58:03.217Z,24.87
2018-10-11T18:00:33.734Z,23.90
2018-10-11T18:03:04.158Z,23.47
2018-10-11T18:05:35.566Z,23.97
2018-10-11T18:08:06.141Z,22.30
2018-10-11T18:10:36.624Z,23.07
2018-10-11T18:13:07.241Z,23.07
2018-10-11T18:15:37.669Z,24.83
2018-10-11T18:18:08.155Z,23.27
2018-10-11T18:20:38.561Z,24.87
2018-10-11T18:23:08.984Z,27.60
2018-10-11T18:25:39.315Z,30.90
2018-10-11T18:28:09.891Z,33.57
2018-10-11T18:30:40.209Z,32.40
2018-10-11T18:33:10.448Z,32.20
2018-10-11T18:35:40.578Z,30.37
2018-10-11T18:38:10.920Z,31.07
2018-10-11T18:40:41.250Z,29.53
2018-10-11T18:43:11.592Z,30.67
2018-10-11T18:45:41.944Z,29.67
2018-10-11T18:48:12.367Z,27.73
2018-10-11T18:50:42.752Z,27.60
2018-10-11T18:53:14.276Z,26.60
2018-10-11T18:55:45.975Z,26.33
2018-10-11T18:58:16.413Z,26.37
2018-10-11T19:00:46.955Z,26.10
2018-10-11T19:03:17.364Z,25.30
2018-10-11T19:05:47.755Z,25.10
2018-10-11T19:08:18.258Z,25.83
2018-10-11T19:10:48.676Z,26.23
2018-10-11T19:13:19.103Z,26.07
2018-10-11T19:15:49.425Z,26.73
2018-10-11T19:18:19.875Z,27.73
2018-10-11T19:20:50.480Z,28.13
2018-10-11T19:23:21.545Z,27.33
2018-10-11T19:25:51.903Z,29.07
2018-10-11T19:28:22.400Z,26.93
2018-10-11T19:30:52.845Z,27.13
2018-10-11T19:33:23.248Z,28.07
2018-10-11T19:35:53.632Z,28.77
2018-10-11T19:38:24.042Z,28.87
2018-10-11T19:40:54.403Z,28.40
2018-10-11T19:43:24.790Z,30.43
2018-10-11T19:45:55.238Z,30.10
2018-10-11T19:48:25.726Z,30.83
2018-10-11T19:50:56.100Z,30.50
2018-10-11T19:53:26.372Z,29.20
2018-10-11T19:55:56.768Z,27.40
2018-10-11T19:58:27.230Z,27.53
2018-10-11T20:00:57.526Z,27.30
2018-10-11T20:03:27.924Z,28.70
2018-10-11T20:05:58.244Z,27.40
2018-10-11T20:08:28.344Z,28.67
2018-10-11T20:10:59.551Z,27.67
2018-10-11T20:13:29.442Z,28.30
2018-10-11T20:15:59.455Z,27.67
2018-10-11T20:18:29.311Z,26.67
2018-10-11T20:20:59.098Z,27.13
2018-10-11T20:23:28.817Z,25.67
2018-10-11T20:25:58.593Z,25.40
2018-10-11T20:28:28.460Z,25.90
2018-10-11T20:30:58.252Z,26.20
2018-10-11T20:33:27.810Z,24.93
2018-10-11T20:35:57.616Z,24.23
2018-10-11T20:38:27.620Z,23.07
2018-10-11T20:40:57.428Z,22.43
2018-10-11T20:43:27.406Z,21.73
2018-10-11T20:45:56.991Z,23.23
2018-10-11T20:48:26.524Z,22.67
2018-10-11T20:50:56.145Z,21.20
2018-10-11T20:53:25.698Z,20.80
2018-10-11T20:55:55.380Z,21.13
2018-10-11T20:58:25.002Z,18.83
2018-10-11T21:00:54.626Z,19.60
2018-10-11T21:03:24.316Z,20.77
2018-10-11T21:05:54.014Z,18.50
2018-10-11T21:08:23.646Z,17.60
2018-10-11T21:10:53.210Z,17.00
2018-10-11T21:13:22.805Z,16.43
2018-10-11T21:15:52.439Z,15.90
2018-10-11T21:18:22.049Z,15.87
2018-10-11T21:20:51.657Z,16.37
2018-10-11T21:23:21.367Z,16.30
2018-10-11T21:25:50.930Z,16.13
2018-10-11T21:28:20.614Z,15.77
2018-10-11T21:30:50.309Z,15.63
2018-10-11T21:33:19.885Z,15.50
2018-10-11T21:35:49.426Z,15.83
2018-10-11T21:38:18.989Z,16.30
2018-10-11T21:40:48.655Z,15.93
2018-10-11T21:43:18.241Z,16.00
2018-10-11T21:45:47.876Z,14.87
2018-10-11T21:48:17.634Z,15.33
2018-10-11T21:50:47.214Z,15.60
2018-10-11T21:53:16.723Z,15.30
2018-10-11T21:55:46.307Z,15.80
2018-10-11T21:58:15.938Z,15.87
2018-10-11T22:00:50.790Z,15.17
2018-10-11T22:03:20.532Z,15.87
2018-10-11T22:05:50.181Z,16.23
2018-10-11T22:08:19.789Z,15.77
2018-10-11T22:10:49.557Z,16.33
2018-10-11T22:13:19.136Z,16.53
2018-10-11T22:15:48.642Z,16.87
2018-10-11T22:18:18.285Z,16.97
2018-10-11T22:20:47.880Z,16.80
2018-10-11T22:23:17.449Z,16.27
2018-10-11T22:25:47.097Z,16.30
2018-10-11T22:28:16.626Z,17.17
2018-10-11T22:30:46.186Z,17.33
2018-10-11T22:33:15.827Z,17.03
2018-10-11T22:35:45.506Z,19.57
2018-10-11T22:38:15.188Z,19.13
2018-10-11T22:40:44.805Z,20.30
2018-10-11T22:43:14.411Z,20.10
2018-10-11T22:45:44.073Z,21.17
2018-10-11T22:48:13.684Z,24.27
2018-10-11T22:50:43.412Z,25.53
2018-10-11T22:53:13.073Z,26.37
2018-10-11T22:55:42.645Z,25.57
2018-10-11T22:58:12.340Z,25.40
2018-10-11T23:00:41.995Z,26.77
2018-10-11T23:03:11.598Z,25.13
2018-10-11T23:05:41.247Z,25.07
2018-10-11T23:08:10.804Z,24.63
2018-10-11T23:10:40.366Z,24.80
2018-10-11T23:13:09.985Z,25.63
2018-10-11T23:15:39.536Z,23.97
2018-10-11T23:18:09.168Z,23.50
2018-10-11T23:20:38.760Z,24.60
2018-10-11T23:23:08.386Z,25.93
2018-10-11T23:25:37.988Z,25.03
2018-10-11T23:28:07.782Z,24.60
2018-10-11T23:30:37.516Z,23.53
2018-10-11T23:33:07.111Z,24.80
2018-10-11T23:35:36.702Z,24.57
2018-10-11T23:38:06.476Z,25.60
2018-10-11T23:40:36.031Z,25.43
2018-10-11T23:43:05.632Z,26.33
2018-10-11T23:45:35.255Z,26.07
2018-10-11T23:48:04.893Z,26.60
2018-10-11T23:50:34.567Z,26.83
2018-10-11T23:53:04.276Z,25.53
2018-10-11T23:55:33.852Z,27.20
2018-10-11T23:58:04.041Z,27.57
